Main page
METAR-TAF:

METAR-TAF

Airports :

Rasht Airport

Rasht, Iran

latitude: 37-12N, longitude: 049-38E, elevation: -7 m

Current weather observation

The report was made 1 hour and 10 minutes ago, at 21:00 UTC
Calm wind
Temperature 14°C
Humidity 88%
Pressure 1018 hPa
Visibility 10 km or more
no clouds below 1500 m and no cumulonimbus

METAR: OIGG 242100Z 00000KT CAVOK 14/12 Q1018

Time: 02:40 (22:10 UTC)

Forecast

The report was made 2 hours and 0 minutes ago, at 20:10 UTC
Forecast valid from 24 at 21 UTC to 25 at 06 UTC
Wind 6 kt from the East
Visibility: 8000 m

TAF: OIGG 242010Z 2421/2506 09006KT 8000 NSC

Weather observations and forecasts of more than 4000 airports (METAR and TAF reports).

The available stations are represented by yellow and red dots on the map.

Hover mouse over dot to see the name of the station.

Then click to see weather observations and forecasts.

To change the map : click on the green buttons with a black cross to zoom in, on the green button with a dash to zoom out, or on the green arrows for adjacent maps.


METAR-TAF: